Time;durP1;ratioP1;P1;durP2;ratioP2;P2;SDS_P1;SDS_P2;PMS_P1;PMS_P2;Temp;Humidity;BMP_temperature;BMP_pressure;BME280_temperature;BME280_humidity;BME280_pressure;Samples;Min_cycle;Max_cycle;Signal;HPM_P1;HPM_P2
2021/01/31 00:03:46;;;;;;;0.70;0.70;;;;;;;1.61;90.18;95113.88;299395;264;63004;-63
2021/01/31 00:08:47;;;;;;;0.80;0.80;;;;;;;1.62;90.30;95104.78;299394;235;63018;-62
2021/01/31 00:13:48;;;;;;;0.80;0.80;;;;;;;1.65;89.92;95114.94;299395;196;63004;-63
2021/01/31 00:18:49;;;;;;;0.70;0.70;;;;;;;1.62;89.97;95112.81;299395;246;63009;-63
2021/01/31 00:23:50;;;;;;;0.80;0.80;;;;;;;1.57;90.30;95118.19;299395;214;63005;-62
2021/01/31 00:28:51;;;;;;;0.80;0.80;;;;;;;1.48;89.74;95114.50;299395;206;63020;-63
2021/01/31 00:33:52;;;;;;;0.70;0.70;;;;;;;1.46;90.09;95127.34;299395;330;63004;-62
2021/01/31 00:38:53;;;;;;;0.80;0.80;;;;;;;1.41;90.34;95138.87;299395;218;63009;-61
2021/01/31 00:43:54;;;;;;;0.80;0.80;;;;;;;1.48;89.61;95133.22;299395;295;63004;-62
2021/01/31 00:48:55;;;;;;;0.80;0.80;;;;;;;1.40;90.08;95137.28;299394;222;64009;-63
2021/01/31 00:53:56;;;;;;;0.70;0.70;;;;;;;1.37;90.16;95145.87;299395;255;63005;-63
2021/01/31 00:58:57;;;;;;;0.73;0.73;;;;;;;1.40;90.61;95144.50;299395;372;63009;-63
2021/01/31 01:03:58;;;;;;;0.70;0.70;;;;;;;1.43;89.99;95133.25;299394;292;64004;-62
2021/01/31 01:09:02;;;;;;;0.80;0.80;;;;;;;1.27;90.09;95136.03;299395;262;63009;-62
2021/01/31 01:14:06;;;;;;;0.80;0.80;;;;;;;1.40;90.22;95139.16;299377;231;125005;-63
2021/01/31 01:19:09;;;;;;;0.80;0.80;;;;;;;1.41;89.81;95140.75;299417;313;63009;-63
2021/01/31 01:24:10;;;;;;;0.80;0.80;;;;;;;1.32;89.81;95152.03;299395;198;63005;-62
2021/01/31 01:29:12;;;;;;;0.80;0.80;;;;;;;1.34;89.63;95149.09;299395;349;63009;-63
2021/01/31 01:34:13;;;;;;;0.80;0.80;;;;;;;1.28;88.98;95148.31;299395;209;63004;-64
2021/01/31 01:39:14;;;;;;;0.80;0.80;;;;;;;1.31;90.27;95145.09;299395;196;63009;-62
2021/01/31 01:44:15;;;;;;;0.73;0.73;;;;;;;1.36;90.15;95140.81;299395;346;63005;-64
2021/01/31 01:49:29;;;;;;;0.80;0.80;;;;;;;1.39;89.35;95153.63;299395;212;63024;-63
2021/01/31 01:54:37;;;;;;;0.70;0.70;;;;;;;1.32;89.70;95164.59;299395;347;63005;-63
2021/01/31 01:59:39;;;;;;;0.77;0.77;;;;;;;1.46;89.00;95151.41;299395;224;63018;-61
2021/01/31 02:04:41;;;;;;;0.80;0.80;;;;;;;1.34;88.64;95152.56;299395;323;63004;-63
2021/01/31 02:09:48;;;;;;;0.80;0.80;;;;;;;1.14;89.42;95157.22;299395;340;63009;-63
2021/01/31 02:14:53;;;;;;;0.70;0.70;;;;;;;1.22;89.01;95160.13;299395;205;63005;-63
2021/01/31 02:20:45;;;;;;;0.70;0.70;;;;;;;1.21;89.72;95166.53;299417;272;63009;-62
2021/01/31 02:26:17;;;;;;;0.70;0.70;;;;;;;1.18;89.20;95160.94;299395;278;63009;-62
2021/01/31 02:31:34;;;;;;;0.80;0.80;;;;;;;1.32;88.69;95175.28;299395;309;63005;-62
2021/01/31 02:37:17;;;;;;;0.70;0.70;;;;;;;1.19;88.83;95175.87;299395;202;63009;-62
2021/01/31 02:42:41;;;;;;;0.70;0.70;;;;;;;1.10;89.14;95181.00;299395;202;63008;-63
2021/01/31 02:47:56;;;;;;;0.70;0.70;;;;;;;1.04;88.65;95187.44;299395;365;63004;-63
2021/01/31 02:53:08;;;;;;;0.70;0.70;;;;;;;1.11;88.73;95190.63;299479;215;125009;-62
2021/01/31 02:58:22;;;;;;;0.80;0.80;;;;;;;1.21;88.14;95195.91;299394;197;64009;-63
2021/01/31 03:03:41;;;;;;;0.70;0.70;;;;;;;1.08;87.78;95196.50;299395;234;63021;-63
2021/01/31 03:08:47;;;;;;;0.70;0.70;;;;;;;1.04;88.08;95206.13;299395;217;63005;-63
2021/01/31 03:13:55;;;;;;;0.70;0.70;;;;;;;0.96;87.81;95204.84;299395;263;63009;-62
2021/01/31 03:19:05;;;;;;;0.80;0.80;;;;;;;1.06;87.12;95204.00;299395;276;63004;-62
2021/01/31 03:24:31;;;;;;;0.80;0.80;;;;;;;0.90;88.39;95223.81;299395;203;63009;-63
2021/01/31 03:29:32;;;;;;;0.80;0.80;;;;;;;0.88;88.28;95202.75;299417;234;63009;-62
2021/01/31 03:34:45;;;;;;;0.80;0.80;;;;;;;0.81;88.38;95204.09;299395;223;63004;-62
2021/01/31 03:39:49;;;;;;;0.80;0.80;;;;;;;0.77;88.29;95200.38;299395;196;63009;-63
2021/01/31 03:44:57;;;;;;;0.70;0.70;;;;;;;0.83;88.72;95193.94;299417;278;63005;-61
2021/01/31 03:49:59;;;;;;;0.80;0.80;;;;;;;0.85;87.87;95191.81;299373;223;63008;-63
2021/01/31 03:55:02;;;;;;;0.70;0.70;;;;;;;0.76;87.98;95198.78;299395;196;63004;-63
2021/01/31 04:00:16;;;;;;;0.70;0.70;;;;;;;0.75;87.94;95210.50;299395;206;63009;-61
2021/01/31 04:05:19;;;;;;;0.80;0.80;;;;;;;0.70;88.34;95221.19;299395;222;63005;-63
2021/01/31 04:10:22;;;;;;;0.80;0.80;;;;;;;0.73;88.51;95247.34;299395;251;63009;-63
2021/01/31 04:15:40;;;;;;;0.80;0.80;;;;;;;0.78;88.08;95255.34;299395;196;63005;-63
2021/01/31 04:20:41;;;;;;;0.80;0.80;;;;;;;0.76;88.57;95252.16;299395;212;63009;-63
2021/01/31 04:25:44;;;;;;;0.80;0.80;;;;;;;0.70;88.86;95247.91;299395;202;63004;-63
2021/01/31 04:30:47;;;;;;;0.80;0.80;;;;;;;0.70;88.96;95237.22;299395;274;63009;-64
2021/01/31 04:35:48;;;;;;;0.80;0.80;;;;;;;0.72;89.46;95251.09;299395;281;63005;-62
2021/01/31 04:40:49;;;;;;;0.80;0.80;;;;;;;0.73;89.40;95242.03;299395;280;63009;-63
2021/01/31 04:45:51;;;;;;;0.80;0.80;;;;;;;0.77;88.73;95251.09;299395;203;63005;-63
2021/01/31 04:51:31;;;;;;;0.80;0.80;;;;;;;0.62;88.57;95242.06;299395;295;63009;-63
2021/01/31 04:56:59;;;;;;;0.80;0.80;;;;;;;0.66;89.11;95237.00;299395;244;63004;-62
2021/01/31 05:02:33;;;;;;;0.80;0.80;;;;;;;0.60;89.23;95243.41;299395;273;63009;-63
2021/01/31 05:07:47;;;;;;;0.80;0.80;;;;;;;0.64;89.23;95237.25;299395;206;63005;-63
2021/01/31 05:13:28;;;;;;;0.80;0.80;;;;;;;0.68;89.21;95228.72;299395;210;63009;-63
2021/01/31 05:18:31;;;;;;;0.80;0.80;;;;;;;0.66;89.50;95237.78;299395;257;63004;-64
2021/01/31 05:23:37;;;;;;;0.80;0.80;;;;;;;0.63;89.48;95227.66;299395;203;63009;-63
2021/01/31 05:28:44;;;;;;;0.80;0.80;;;;;;;0.60;89.85;95230.06;299395;234;63005;-64
2021/01/31 05:33:55;;;;;;;0.80;0.80;;;;;;;0.55;89.26;95230.88;299395;196;63009;-64
2021/01/31 05:38:57;;;;;;;0.80;0.80;;;;;;;0.57;89.21;95228.72;299395;202;63005;-63
2021/01/31 05:44:26;;;;;;;0.80;0.80;;;;;;;0.62;88.97;95231.38;299395;199;63009;-63
2021/01/31 05:49:43;;;;;;;0.80;0.80;;;;;;;0.61;89.71;95242.34;299395;227;63004;-62
2021/01/31 05:54:48;;;;;;;0.80;0.80;;;;;;;0.87;89.13;95253.75;299395;216;63009;-66
2021/01/31 05:59:52;;;;;;;;;;;;;;;0.90;88.72;95258.53;299996;982;6000;-63
2021/01/31 06:05:11;;;;;;;0.80;0.80;;;;;;;0.73;88.83;95263.38;299400;206;63005;-64
2021/01/31 06:10:18;;;;;;;0.70;0.70;;;;;;;0.65;89.08;95262.88;299395;214;63009;-62
2021/01/31 06:15:42;;;;;;;0.80;0.80;;;;;;;0.61;89.19;95277.84;299395;336;63005;-64
2021/01/31 06:20:45;;;;;;;0.80;0.80;;;;;;;0.68;89.69;95274.09;299395;281;63009;-65
2021/01/31 06:25:46;;;;;;;1.58;1.50;;;;;;;0.58;89.45;95273.03;299395;294;63004;-62
2021/01/31 06:31:13;;;;;;;0.80;0.80;;;;;;;0.74;89.83;95286.34;299395;209;63009;-63
2021/01/31 06:36:58;;;;;;;0.70;0.70;;;;;;;0.78;88.79;95293.53;299395;213;63005;-64
2021/01/31 06:42:12;;;;;;;0.70;0.70;;;;;;;0.71;89.13;95293.00;299395;197;63009;-64
2021/01/31 06:48:02;;;;;;;0.80;0.80;;;;;;;0.73;89.15;95285.53;299395;229;63004;-63
2021/01/31 06:53:22;;;;;;;0.90;0.90;;;;;;;0.69;89.50;95305.06;299395;199;63009;-62
2021/01/31 06:59:00;;;;;;;0.80;0.80;;;;;;;0.61;89.09;95317.88;299395;251;63005;-62
2021/01/31 07:04:50;;;;;;;0.80;0.80;;;;;;;0.63;89.72;95322.94;299395;241;63004;-61
2021/01/31 07:10:49;;;;;;;0.80;0.80;;;;;;;0.73;89.37;95327.44;299395;227;63009;-62
2021/01/31 07:16:38;;;;;;;0.70;0.70;;;;;;;0.70;89.55;95326.13;299395;218;63004;-62
2021/01/31 07:21:54;;;;;;;0.70;0.70;;;;;;;0.66;89.19;95349.91;299395;289;63009;-63
2021/01/31 07:27:06;;;;;;;0.70;0.70;;;;;;;0.75;88.56;95352.00;299395;246;63005;-62
2021/01/31 07:32:17;;;;;;;0.70;0.70;;;;;;;0.71;88.99;95345.59;299395;332;63009;-63
2021/01/31 07:37:19;;;;;;;0.70;0.70;;;;;;;0.74;88.92;95347.72;299395;208;63005;-62
2021/01/31 07:42:21;;;;;;;0.70;0.70;;;;;;;0.63;88.79;95352.31;299395;280;63009;-63
2021/01/31 07:47:24;;;;;;;0.80;0.80;;;;;;;0.72;89.21;95361.34;299395;209;63003;-63
2021/01/31 07:52:27;;;;;;;0.80;0.80;;;;;;;0.81;88.38;95356.28;299395;211;63009;-63
2021/01/31 07:57:37;;;;;;;0.80;0.80;;;;;;;0.72;88.54;95363.22;299395;207;63005;-62
2021/01/31 08:02:45;;;;;;;0.70;0.70;;;;;;;0.76;88.87;95358.94;299395;225;63008;-62
2021/01/31 08:08:04;;;;;;;0.77;0.77;;;;;;;0.88;88.36;95356.81;299395;220;63004;-62
2021/01/31 08:13:12;;;;;;;0.70;0.70;;;;;;;0.81;88.19;95365.09;299395;294;63009;-63
2021/01/31 08:18:15;;;;;;;0.80;0.80;;;;;;;0.90;88.67;95366.16;299395;212;63004;-63
2021/01/31 08:23:43;;;;;;;0.80;0.80;;;;;;;0.94;88.91;95366.44;299395;364;63009;-63
2021/01/31 08:28:57;;;;;;;0.80;0.80;;;;;;;0.88;89.26;95375.50;299395;286;63009;-61
2021/01/31 08:34:03;;;;;;;0.70;0.70;;;;;;;0.78;88.95;95370.97;299395;224;63009;-64
2021/01/31 08:39:31;;;;;;;0.70;0.70;;;;;;;0.89;89.56;95369.09;299395;197;63004;-63
2021/01/31 08:44:42;;;;;;;0.80;0.80;;;;;;;0.98;88.73;95378.97;299394;202;64013;-59
2021/01/31 08:49:43;;;;;;;0.80;0.80;;;;;;;1.12;88.78;95379.19;299395;259;63005;-66
2021/01/31 08:54:57;;;;;;;0.80;0.80;;;;;;;1.17;88.45;95397.91;299395;214;63008;-67
2021/01/31 09:00:06;;;;;;;0.80;0.80;;;;;;;1.25;89.19;95378.66;299417;314;63004;-71
2021/01/31 09:05:17;;;;;;;0.80;0.80;;;;;;;1.32;88.30;95389.06;299395;214;63009;-69
2021/01/31 09:10:54;;;;;;;0.80;0.80;;;;;;;1.34;87.70;95385.06;299395;313;63004;-68
2021/01/31 09:16:22;;;;;;;0.80;0.80;;;;;;;1.40;87.98;95385.81;299395;209;63009;-69
2021/01/31 09:21:33;;;;;;;0.70;0.70;;;;;;;1.53;87.70;95390.59;299395;256;63004;-68
2021/01/31 09:26:34;;;;;;;0.75;0.75;;;;;;;1.52;87.82;95394.34;299395;275;63009;-70
2021/01/31 09:31:42;;;;;;;0.80;0.80;;;;;;;1.68;87.62;95408.47;299395;202;63004;-70
2021/01/31 09:36:42;;;;;;;0.80;0.80;;;;;;;1.68;86.74;95403.13;299395;331;63009;-70
2021/01/31 09:41:44;;;;;;;0.80;0.80;;;;;;;1.61;87.53;95405.28;299395;253;63000;-68
2021/01/31 09:46:46;;;;;;;0.80;0.80;;;;;;;1.68;87.40;95409.28;299395;303;63019;-68
2021/01/31 09:51:48;;;;;;;0.80;0.80;;;;;;;1.79;86.32;95410.03;299395;206;63004;-69
2021/01/31 09:56:55;;;;;;;0.70;0.70;;;;;;;1.79;86.12;95407.34;299395;297;63009;-68
2021/01/31 10:02:28;;;;;;;0.80;0.80;;;;;;;1.82;86.58;95419.38;299395;203;63004;-68
2021/01/31 10:07:43;;;;;;;0.70;0.70;;;;;;;1.73;85.22;95421.84;299395;218;63020;-58
2021/01/31 10:12:44;;;;;;;0.70;0.70;;;;;;;1.77;86.11;95395.31;299395;329;63005;-69
2021/01/31 10:17:46;;;;;;;0.70;0.70;;;;;;;1.97;85.65;95401.41;299395;329;63009;-70
2021/01/31 10:22:47;;;;;;;0.70;0.70;;;;;;;2.10;84.04;95393.84;299395;267;63004;-73
2021/01/31 10:27:50;;;;;;;0.70;0.70;;;;;;;2.26;84.00;95388.13;299395;214;63009;-67
2021/01/31 10:32:52;;;;;;;0.70;0.70;;;;;;;2.32;84.27;95388.91;299396;294;63008;-72
2021/01/31 10:37:53;;;;;;;0.70;0.70;;;;;;;2.52;84.15;95386.09;299396;333;63009;-69
2021/01/31 10:42:55;;;;;;;0.70;0.70;;;;;;;2.62;81.70;95390.56;299396;269;63005;-72
2021/01/31 10:47:56;;;;;;;0.70;0.70;;;;;;;2.66;82.47;95391.63;299396;197;63009;-71
2021/01/31 10:52:57;;;;;;;0.70;0.70;;;;;;;2.53;82.69;95390.37;299396;243;63004;-73
2021/01/31 10:57:58;;;;;;;0.70;0.70;;;;;;;2.50;83.08;95398.94;299396;288;63009;-72
2021/01/31 11:02:59;;;;;;;0.70;0.70;;;;;;;2.36;83.87;95403.34;299396;202;63005;-71
2021/01/31 11:08:00;;;;;;;0.70;0.70;;;;;;;2.45;83.24;95388.28;299396;265;63009;-72
2021/01/31 11:13:01;;;;;;;0.70;0.70;;;;;;;2.47;82.60;95388.00;299396;229;63005;-68
2021/01/31 11:18:03;;;;;;;0.70;0.70;;;;;;;2.58;82.08;95379.63;299396;269;63009;-71
2021/01/31 11:23:04;;;;;;;0.70;0.70;;;;;;;2.72;81.76;95368.28;299397;249;63004;-69
2021/01/31 11:28:05;;;;;;;0.70;0.70;;;;;;;2.85;81.26;95371.09;299396;293;63009;-69
2021/01/31 11:33:09;;;;;;;0.60;0.60;;;;;;;2.98;81.46;95369.66;299396;228;63005;-68
2021/01/31 11:38:10;;;;;;;0.70;0.70;;;;;;;3.23;80.75;95374.78;299396;238;63008;-68
2021/01/31 11:43:11;;;;;;;0.70;0.70;;;;;;;3.39;80.74;95371.94;299396;220;63004;-69
2021/01/31 11:48:12;;;;;;;0.60;0.60;;;;;;;3.45;78.63;95368.16;299396;218;63009;-69
2021/01/31 11:53:15;;;;;;;0.70;0.70;;;;;;;3.14;79.53;95375.66;299396;216;63004;-65
2021/01/31 11:58:17;;;;;;;0.70;0.70;;;;;;;3.00;80.31;95368.31;299396;317;63009;-67
2021/01/31 12:03:19;;;;;;;0.90;0.90;;;;;;;2.94;80.51;95356.03;299396;259;63009;-69
2021/01/31 12:08:20;;;;;;;0.70;0.70;;;;;;;3.15;81.21;95348.59;299396;247;63008;-66
2021/01/31 12:13:22;;;;;;;0.95;0.95;;;;;;;3.13;79.70;95366.81;299397;221;63004;-69
2021/01/31 12:18:24;;;;;;;0.70;0.70;;;;;;;3.07;79.04;95351.91;299395;241;63009;-69
2021/01/31 12:23:25;;;;;;;0.70;0.70;;;;;;;2.98;79.51;95343.66;299395;305;63004;-66
2021/01/31 12:28:26;;;;;;;0.70;0.70;;;;;;;2.87;80.65;95336.00;299395;206;63009;-71
2021/01/31 12:33:27;;;;;;;0.70;0.70;;;;;;;2.81;80.77;95323.72;299395;255;63005;-70
2021/01/31 12:38:30;;;;;;;5.68;5.47;;;;;;;2.91;80.05;95320.97;299395;323;63008;-70
2021/01/31 12:43:31;;;;;;;0.70;0.70;;;;;;;2.87;80.54;95311.88;299395;200;63004;-71
2021/01/31 12:48:35;;;;;;;0.70;0.70;;;;;;;2.85;81.36;95314.03;299395;250;63009;-69
2021/01/31 12:53:38;;;;;;;0.70;0.70;;;;;;;2.92;80.54;95303.81;299417;197;63005;-67
2021/01/31 12:58:40;;;;;;;0.70;0.70;;;;;;;2.93;80.00;95297.38;299395;381;63009;-69
2021/01/31 13:03:44;;;;;;;0.70;0.70;;;;;;;2.93;80.07;95289.34;299395;219;63005;-69
2021/01/31 13:08:46;;;;;;;0.70;0.70;;;;;;;2.91;80.09;95286.12;299417;299;63009;-72
2021/01/31 13:13:47;;;;;;;0.70;0.70;;;;;;;2.90;80.43;95279.19;299395;256;63004;-69
2021/01/31 13:18:49;;;;;;;0.70;0.70;;;;;;;2.88;81.12;95290.19;299395;231;63009;-71
2021/01/31 13:23:50;;;;;;;0.70;0.70;;;;;;;2.79;81.94;95291.06;299395;244;63005;-71
2021/01/31 13:28:52;;;;;;;1.00;1.00;;;;;;;2.69;83.15;95289.31;299395;212;63009;-70
2021/01/31 13:33:54;;;;;;;0.70;0.70;;;;;;;2.62;82.76;95286.94;299395;202;63005;-70
2021/01/31 13:38:55;;;;;;;0.70;0.70;;;;;;;2.58;83.29;95279.75;299395;356;63009;-70
2021/01/31 13:43:57;;;;;;;0.70;0.70;;;;;;;2.60;83.10;95274.91;299395;291;63004;-70
2021/01/31 13:48:58;;;;;;;0.70;0.70;;;;;;;2.61;84.03;95276.50;299395;202;63009;-70
2021/01/31 13:53:59;;;;;;;0.70;0.70;;;;;;;2.63;83.09;95266.31;299395;217;63005;-71
2021/01/31 13:59:00;;;;;;;0.70;0.70;;;;;;;2.75;82.12;95260.59;299395;232;63009;-70
2021/01/31 14:04:02;;;;;;;0.70;0.70;;;;;;;2.79;82.32;95250.88;299395;213;63005;-69
2021/01/31 14:09:03;;;;;;;0.70;0.70;;;;;;;2.59;83.78;95251.91;299395;284;63009;-69
2021/01/31 14:14:04;;;;;;;0.70;0.70;;;;;;;2.60;83.75;95248.94;299395;239;63004;-70
2021/01/31 14:19:08;;;;;;;0.70;0.70;;;;;;;2.65;83.43;95248.91;299395;267;63009;-71
2021/01/31 14:24:09;;;;;;;0.70;0.70;;;;;;;2.72;83.21;95231.69;299417;243;63005;-71
2021/01/31 14:29:10;;;;;;;0.70;0.70;;;;;;;2.88;82.08;95227.75;299395;199;63009;-71
2021/01/31 14:34:11;;;;;;;0.70;0.70;;;;;;;2.90;81.37;95226.41;299394;264;64005;-69
2021/01/31 14:39:12;;;;;;;0.70;0.70;;;;;;;2.75;82.81;95226.56;299395;232;63009;-71
2021/01/31 14:44:13;;;;;;;0.70;0.70;;;;;;;2.87;81.84;95218.12;299394;376;64009;-70
2021/01/31 14:49:15;;;;;;;0.70;0.70;;;;;;;2.76;82.69;95213.97;299395;290;63009;-70
2021/01/31 14:54:17;;;;;;;0.70;0.70;;;;;;;2.71;83.61;95209.47;299395;243;63005;-71
2021/01/31 14:59:17;;;;;;;0.70;0.70;;;;;;;2.76;84.10;95211.31;299395;234;63009;-70
2021/01/31 15:04:21;;;;;;;0.70;0.70;;;;;;;2.82;82.69;95216.31;299395;308;63005;-70
2021/01/31 15:09:22;;;;;;;0.70;0.70;;;;;;;2.75;83.49;95217.75;299395;197;63009;-70
2021/01/31 15:14:23;;;;;;;0.80;0.80;;;;;;;2.78;82.60;95206.44;299395;242;63004;-71
2021/01/31 15:19:24;;;;;;;0.80;0.80;;;;;;;2.71;83.50;95200.66;299395;222;63009;-71
2021/01/31 15:24:25;;;;;;;0.80;0.80;;;;;;;2.72;83.58;95199.56;299395;220;63005;-72
2021/01/31 15:29:26;;;;;;;0.70;0.70;;;;;;;2.66;83.40;95194.25;299395;283;63004;-72
2021/01/31 15:34:27;;;;;;;1.50;1.50;;;;;;;2.60;84.08;95206.09;299395;204;63004;-71
2021/01/31 15:39:27;;;;;;;0.70;0.70;;;;;;;2.57;84.49;95198.63;299395;202;63009;-57
2021/01/31 15:44:30;;;;;;;0.70;0.70;;;;;;;2.56;84.87;95194.34;299395;218;63004;-70
2021/01/31 15:49:31;;;;;;;0.68;0.68;;;;;;;2.58;84.75;95181.47;299395;284;63009;-70
2021/01/31 15:54:33;;;;;;;0.70;0.70;;;;;;;2.62;84.09;95181.72;299395;264;63005;-70
2021/01/31 15:59:34;;;;;;;0.70;0.70;;;;;;;2.60;83.75;95200.75;299395;211;63008;-70
2021/01/31 16:04:36;;;;;;;0.70;0.70;;;;;;;2.60;84.23;95200.75;299395;289;63004;-71
2021/01/31 16:09:37;;;;;;;0.70;0.70;;;;;;;2.58;84.79;95197.53;299395;230;63009;-71
2021/01/31 16:14:38;;;;;;;0.80;0.80;;;;;;;2.55;84.76;95192.75;299395;203;63010;-74
2021/01/31 16:19:39;;;;;;;0.70;0.70;;;;;;;2.50;84.16;95189.31;299395;220;63009;-70
2021/01/31 16:24:42;;;;;;;0.70;0.70;;;;;;;2.48;84.39;95183.47;299395;238;63000;-71
2021/01/31 16:29:43;;;;;;;0.70;0.70;;;;;;;2.44;84.13;95177.88;299395;249;63008;-70
2021/01/31 16:34:44;;;;;;;0.70;0.70;;;;;;;2.42;84.31;95177.37;299395;239;63004;-70
2021/01/31 16:39:45;;;;;;;0.70;0.70;;;;;;;2.51;83.43;95174.84;299395;225;63009;-71
2021/01/31 16:44:48;;;;;;;0.70;0.70;;;;;;;2.40;84.23;95162.69;299395;233;63004;-70
2021/01/31 16:49:49;;;;;;;0.70;0.70;;;;;;;2.45;83.54;95160.72;299395;196;63009;-72
2021/01/31 16:54:51;;;;;;;0.70;0.70;;;;;;;2.42;83.45;95155.97;299395;222;63005;-74
2021/01/31 16:59:56;;;;;;;0.80;0.80;;;;;;;2.46;82.93;95156.16;299395;215;63009;-71
2021/01/31 17:04:58;;;;;;;0.70;0.70;;;;;;;2.45;83.08;95149.22;299417;216;63010;-69
2021/01/31 17:09:59;;;;;;;0.70;0.70;;;;;;;2.40;83.23;95152.78;299395;209;63009;-70
2021/01/31 17:15:00;;;;;;;0.70;0.70;;;;;;;2.31;83.63;95154.47;299394;233;64005;-72
2021/01/31 17:20:01;;;;;;;0.70;0.70;;;;;;;2.28;83.99;95131.75;299395;275;63009;-72
2021/01/31 17:25:05;;;;;;;0.70;0.70;;;;;;;2.30;83.76;95131.44;299395;198;63005;-70
2021/01/31 17:30:08;;;;;;;0.70;0.70;;;;;;;2.28;84.22;95122.91;299395;334;63009;-70
2021/01/31 17:35:11;;;;;;;0.70;0.70;;;;;;;2.30;83.92;95120.75;299395;235;63004;-68
2021/01/31 17:40:15;;;;;;;0.70;0.70;;;;;;;2.36;83.90;95124.97;299395;205;63009;-68
2021/01/31 17:45:19;;;;;;;0.62;0.62;;;;;;;2.32;84.80;95127.41;299417;265;63005;-58
2021/01/31 17:50:23;;;;;;;0.70;0.70;;;;;;;2.25;85.58;95134.19;299395;254;63025;-70
2021/01/31 17:55:25;;;;;;;0.77;0.77;;;;;;;2.23;85.51;95120.28;299417;197;63005;-70
2021/01/31 18:00:29;;;;;;;0.70;0.70;;;;;;;2.15;86.20;95112.88;299395;280;63009;-71
2021/01/31 18:05:30;;;;;;;0.70;0.70;;;;;;;2.20;85.94;95104.78;299395;196;63009;-70
2021/01/31 18:10:32;;;;;;;0.70;0.70;;;;;;;2.08;86.82;95102.50;299395;244;63009;-56
2021/01/31 18:15:33;;;;;;;0.70;0.70;;;;;;;2.11;86.82;95093.91;299395;308;63005;-70
2021/01/31 18:20:36;;;;;;;0.70;0.70;;;;;;;2.08;86.83;95096.38;299395;205;63009;-69
2021/01/31 18:25:37;;;;;;;0.70;0.70;;;;;;;2.16;86.42;95095.72;299395;225;63005;-69
2021/01/31 18:30:39;;;;;;;0.70;0.70;;;;;;;2.25;84.83;95073.44;299395;197;63009;-72
2021/01/31 18:35:40;;;;;;;0.70;0.70;;;;;;;2.30;84.57;95073.38;299395;196;63004;-69
2021/01/31 18:40:41;;;;;;;0.70;0.70;;;;;;;2.37;84.02;95056.97;299395;314;63009;-69
2021/01/31 18:45:42;;;;;;;0.68;0.68;;;;;;;2.31;84.25;95052.75;299395;248;63005;-70
2021/01/31 18:50:43;;;;;;;0.70;0.70;;;;;;;2.28;84.42;95047.97;299395;202;63008;-68
2021/01/31 18:55:44;;;;;;;0.70;0.70;;;;;;;2.25;84.58;95037.84;299394;281;64004;-57
2021/01/31 19:00:45;;;;;;;0.70;0.70;;;;;;;2.30;84.00;95035.09;299395;293;63009;-69
2021/01/31 19:05:46;;;;;;;0.70;0.70;;;;;;;2.26;83.87;95024.19;299395;304;63004;-69
2021/01/31 19:10:47;;;;;;;0.70;0.70;;;;;;;2.19;84.58;95028.28;299395;278;63009;-69
2021/01/31 19:15:50;;;;;;;0.70;0.70;;;;;;;2.16;85.01;95028.84;299395;267;63011;-67
2021/01/31 19:20:51;;;;;;;0.70;0.70;;;;;;;2.27;83.93;95025.78;299395;202;63008;-69
2021/01/31 19:25:52;;;;;;;0.70;0.70;;;;;;;2.14;84.25;95014.94;299395;214;63000;-68
2021/01/31 19:30:52;;;;;;;0.70;0.70;;;;;;;2.10;84.79;95019.28;299395;310;63009;-70
2021/01/31 19:35:53;;;;;;;0.70;0.70;;;;;;;2.06;85.26;94991.53;299395;321;63004;-66
2021/01/31 19:40:54;;;;;;;0.70;0.70;;;;;;;1.99;84.41;94986.50;299395;202;63009;-57
2021/01/31 19:45:56;;;;;;;0.70;0.70;;;;;;;1.88;85.42;94988.50;299395;197;63013;-57
2021/01/31 19:50:59;;;;;;;0.70;0.70;;;;;;;1.84;85.64;94982.12;299395;222;63008;-71
2021/01/31 19:56:00;;;;;;;0.70;0.70;;;;;;;1.74;86.40;94986.75;299395;346;63004;-57
2021/01/31 20:01:07;;;;;;;0.70;0.70;;;;;;;1.87;85.78;94978.87;299395;254;63009;-70
2021/01/31 20:06:09;;;;;;;0.70;0.70;;;;;;;2.03;84.60;94960.00;299395;358;63005;-63
2021/01/31 20:11:10;;;;;;;0.70;0.70;;;;;;;2.08;84.06;94952.66;299395;217;63009;-68
2021/01/31 20:16:12;;;;;;;0.60;0.60;;;;;;;1.94;85.01;94952.59;299395;295;63005;-57
2021/01/31 20:21:16;;;;;;;0.60;0.60;;;;;;;1.94;85.26;94947.25;299395;370;63009;-70
2021/01/31 20:26:19;;;;;;;0.70;0.70;;;;;;;2.11;84.79;94937.94;299417;202;63004;-70
2021/01/31 20:31:20;;;;;;;0.70;0.70;;;;;;;2.10;84.46;94917.63;299395;298;63009;-66
2021/01/31 20:36:22;;;;;;;0.70;0.70;;;;;;;2.12;84.62;94912.78;299395;244;63005;-69
2021/01/31 20:41:23;;;;;;;0.70;0.70;;;;;;;2.16;84.23;94906.56;299394;274;64013;-70
2021/01/31 20:46:25;;;;;;;0.70;0.70;;;;;;;2.17;84.22;94905.47;299395;203;63005;-70
2021/01/31 20:51:29;;;;;;;0.70;0.70;;;;;;;2.08;85.48;94895.72;299395;344;63022;-70
2021/01/31 20:56:30;;;;;;;0.70;0.70;;;;;;;2.10;85.20;94890.84;299377;366;125004;-71
2021/01/31 21:01:31;;;;;;;0.70;0.70;;;;;;;2.20;84.51;94880.03;299395;274;63009;-69
2021/01/31 21:06:32;;;;;;;0.70;0.70;;;;;;;2.23;84.25;94890.16;299395;296;63005;-73
2021/01/31 21:11:35;;;;;;;0.70;0.70;;;;;;;2.15;84.63;94883.56;299395;210;63009;-70
2021/01/31 21:16:35;;;;;;;0.70;0.70;;;;;;;2.14;84.42;94873.94;299395;248;63005;-71
2021/01/31 21:21:36;;;;;;;0.70;0.70;;;;;;;2.09;85.06;94867.88;299395;347;63009;-69
2021/01/31 21:26:37;;;;;;;0.60;0.60;;;;;;;2.16;84.36;94862.97;299395;229;63004;-70
2021/01/31 21:31:38;;;;;;;0.70;0.70;;;;;;;2.22;84.10;94845.75;299395;256;63009;-67
2021/01/31 21:36:39;;;;;;;0.70;0.70;;;;;;;2.23;84.45;94837.44;299395;254;63005;-70
2021/01/31 21:41:40;;;;;;;0.70;0.70;;;;;;;2.18;84.92;94839.38;299395;205;63009;-70
2021/01/31 21:46:41;;;;;;;0.70;0.70;;;;;;;2.23;84.83;94823.25;299395;222;63005;-69
2021/01/31 21:51:42;;;;;;;0.70;0.70;;;;;;;2.30;84.75;94815.66;299395;340;63009;-68
2021/01/31 21:56:43;;;;;;;0.70;0.70;;;;;;;2.28;84.39;94815.97;299395;358;63004;-70
2021/01/31 22:01:44;;;;;;;0.70;0.70;;;;;;;2.29;84.85;94809.53;299395;206;63009;-67
2021/01/31 22:06:45;;;;;;;0.70;0.70;;;;;;;2.32;84.34;94802.78;299395;245;63023;-70
2021/01/31 22:11:48;;;;;;;0.80;0.80;;;;;;;2.25;84.65;94802.37;299395;235;63008;-70
2021/01/31 22:16:49;;;;;;;0.70;0.70;;;;;;;2.31;84.67;94799.31;299395;309;63004;-69
2021/01/31 22:21:49;;;;;;;0.70;0.70;;;;;;;2.26;84.44;94793.25;299395;216;63009;-68
2021/01/31 22:26:50;;;;;;;0.70;0.70;;;;;;;2.30;84.01;94799.62;299395;313;63004;-68
2021/01/31 22:31:51;;;;;;;0.70;0.70;;;;;;;2.23;83.93;94791.16;299395;280;63009;-71
2021/01/31 22:36:52;;;;;;;0.70;0.70;;;;;;;2.25;83.42;94787.09;299395;233;63005;-69
2021/01/31 22:41:53;;;;;;;0.70;0.70;;;;;;;2.17;84.58;94782.41;299394;364;64008;-70
2021/01/31 22:46:57;;;;;;;0.70;0.70;;;;;;;2.20;84.23;94778.34;299395;271;63004;-68
2021/01/31 22:52:03;;;;;;;0.63;0.63;;;;;;;2.31;83.79;94758.38;299479;219;125009;-65
2021/01/31 22:57:04;;;;;;;0.70;0.70;;;;;;;2.28;83.35;94764.31;299395;358;63004;-68
2021/01/31 23:02:05;;;;;;;0.70;0.70;;;;;;;2.23;84.07;94761.72;299395;288;63009;-68
2021/01/31 23:07:07;;;;;;;0.70;0.70;;;;;;;2.27;83.60;94741.31;299396;202;63005;-68
2021/01/31 23:12:10;;;;;;;0.70;0.70;;;;;;;2.25;83.73;94738.16;299396;317;63009;-67
2021/01/31 23:17:11;;;;;;;0.70;0.70;;;;;;;2.23;83.40;94729.63;299396;202;63004;-65
2021/01/31 23:22:13;;;;;;;0.70;0.70;;;;;;;2.21;83.59;94729.09;299396;199;63009;-68
2021/01/31 23:27:14;;;;;;;0.80;0.80;;;;;;;2.25;83.47;94724.75;299396;349;63005;-65
2021/01/31 23:32:15;;;;;;;0.70;0.70;;;;;;;2.20;83.62;94722.16;299396;214;63009;-69
2021/01/31 23:37:16;;;;;;;0.70;0.70;;;;;;;2.14;83.55;94720.66;299396;305;63005;-68
2021/01/31 23:42:17;;;;;;;0.70;0.70;;;;;;;2.04;83.84;94702.91;299396;354;63009;-69
2021/01/31 23:47:18;;;;;;;0.70;0.70;;;;;;;2.05;83.42;94706.38;299396;292;63004;-68
2021/01/31 23:52:19;;;;;;;0.70;0.70;;;;;;;2.01;83.97;94706.97;299397;226;63009;-69
2021/01/31 23:57:20;;;;;;;0.70;0.70;;;;;;;2.06;83.45;94690.03;299397;213;63005;-63
